Time;durP1;ratioP1;P1;durP2;ratioP2;P2;SDS_P1;SDS_P2;PMS_P1;PMS_P2;Temp;Humidity;BMP_temperature;BMP_pressure;BME280_temperature;BME280_humidity;BME280_pressure;Samples;Min_cycle;Max_cycle;Signal;HPM_P1;HPM_P2
2022/02/24 00:00:31;;;;;;;24.77;6.13;;;;;;;-0.44;88.64;99918.34;1799257;78;20890;-65
2022/02/24 00:02:59;;;;;;;18.45;6.92;;;;;;;-0.45;88.63;99916.60;1782711;79;20982;-66
2022/02/24 00:05:26;;;;;;;25.92;6.80;;;;;;;-0.44;88.66;99920.05;1797950;79;21411;-66
2022/02/24 00:07:53;;;;;;;19.55;6.97;;;;;;;-0.47;88.59;99915.77;1793978;78;21407;-66
2022/02/24 00:10:20;;;;;;;24.72;6.85;;;;;;;-0.48;88.60;99916.61;1796050;79;21574;-67
2022/02/24 00:12:47;;;;;;;;;;;;;;;-0.49;88.64;99914.91;1798768;79;20989;-66
2022/02/24 00:15:14;;;;;;;27.82;6.05;;;;;;;-0.52;88.64;99917.04;1798594;79;20531;-66
2022/02/24 00:17:41;;;;;;;26.30;6.23;;;;;;;-0.54;88.65;99914.05;1795847;79;20958;-66
2022/02/24 00:20:09;;;;;;;;;;;;;;;-0.56;88.67;99908.05;1796647;78;21101;-66
2022/02/24 00:22:36;;;;;;;20.80;5.58;;;;;;;-0.57;88.65;99906.34;1795330;79;20202;-66
2022/02/24 00:25:05;;;;;;;18.73;6.60;;;;;;;-0.60;88.71;99908.91;1797430;79;20993;-66
2022/02/24 00:27:32;;;;;;;11.20;4.30;;;;;;;-0.72;88.71;99893.94;1797372;79;21454;-66
2022/02/24 00:29:59;;;;;;;22.47;5.90;;;;;;;-0.66;88.69;99906.34;1799402;79;21570;-66
2022/02/24 00:32:25;;;;;;;19.05;5.37;;;;;;;-0.67;88.77;99909.34;1797190;79;21474;-65
2022/02/24 00:34:52;;;;;;;17.42;5.30;;;;;;;-0.68;88.88;99899.48;1796566;78;21096;-66
2022/02/24 00:37:19;;;;;;;19.92;5.62;;;;;;;-0.68;88.88;99903.77;1800435;78;21060;-66
2022/02/24 00:39:46;;;;;;;25.03;5.77;;;;;;;-0.69;88.95;99895.22;1794572;79;21073;-66
2022/02/24 00:42:12;;;;;;;22.87;6.47;;;;;;;-0.68;89.03;99896.92;1798954;79;21203;-66
2022/02/24 00:44:39;;;;;;;16.47;5.20;;;;;;;-0.68;88.99;99895.64;1799395;79;21569;-66
2022/02/24 00:47:06;;;;;;;20.80;5.97;;;;;;;-0.70;88.94;99890.96;1794138;79;21276;-66
2022/02/24 00:49:38;;;;;;;20.37;6.08;;;;;;;-0.71;88.93;99890.52;1788184;78;28268;-66
2022/02/24 00:52:06;;;;;;;21.33;5.40;;;;;;;-0.70;89.00;99891.36;1759575;81;20989;-66
2022/02/24 00:54:32;;;;;;;;;;;;;;;-0.71;89.02;99891.80;1790268;79;20942;-66
2022/02/24 00:56:59;;;;;;;20.92;6.53;;;;;;;-0.71;89.05;99891.80;1782401;78;21129;-66
2022/02/24 00:59:25;;;;;;;17.60;5.40;;;;;;;-0.73;89.01;99885.83;1762649;79;21027;-66
2022/02/24 01:01:53;;;;;;;21.33;5.43;;;;;;;-0.74;89.00;99888.38;1770518;80;21026;-66
2022/02/24 01:04:20;;;;;;;23.95;6.25;;;;;;;-0.76;88.99;99888.36;1761556;79;21056;-66
2022/02/24 01:06:47;;;;;;;16.85;6.55;;;;;;;-0.75;89.10;99895.22;1770934;80;21562;-66
2022/02/24 01:09:14;;;;;;;20.92;5.75;;;;;;;-0.74;89.12;99896.92;1777627;80;21475;-66
2022/02/24 01:11:45;;;;;;;22.02;7.03;;;;;;;-0.74;89.12;99893.51;1772067;80;20902;-65
2022/02/24 01:14:09;;;;;;;22.90;6.17;;;;;;;-0.75;89.14;99890.09;1754050;79;21004;-66
2022/02/24 01:16:37;;;;;;;27.40;6.17;;;;;;;-0.75;89.14;99887.53;1756890;79;21060;-66
2022/02/24 01:19:04;;;;;;;21.90;5.37;;;;;;;-0.74;89.15;99885.81;1754016;79;21022;-66
2022/02/24 01:21:30;;;;;;;25.83;6.20;;;;;;;-0.74;89.13;99883.25;1764148;80;21950;-66
2022/02/24 01:23:57;;;;;;;19.53;5.43;;;;;;;-0.74;89.26;99875.12;1766762;80;20977;-66
2022/02/24 01:26:24;;;;;;;26.97;6.53;;;;;;;-0.74;89.26;99876.41;1764340;80;20942;-66
2022/02/24 01:28:50;;;;;;;21.10;6.37;;;;;;;-0.75;89.22;99875.99;1765755;80;21060;-66
2022/02/24 01:31:18;;;;;;;19.35;6.50;;;;;;;-0.75;89.17;99868.30;1767566;80;20993;-66
2022/02/24 01:33:45;;;;;;;25.85;7.50;;;;;;;-0.76;89.12;99878.11;1766738;79;21437;-66
2022/02/24 01:36:12;;;;;;;15.18;5.97;;;;;;;-0.78;89.14;99863.61;1762589;80;21064;-66
2022/02/24 01:38:39;;;;;;;20.02;5.58;;;;;;;-0.79;89.18;99861.88;1766515;80;21010;-66
2022/02/24 01:41:06;;;;;;;21.48;6.40;;;;;;;-0.82;89.18;99862.73;1767363;80;20990;-66
2022/02/24 01:43:33;;;;;;;18.37;6.00;;;;;;;-0.85;89.15;99849.91;1760484;80;21032;-66
2022/02/24 01:46:01;;;;;;;18.30;5.53;;;;;;;-0.87;89.13;99856.73;1766456;80;21763;-66
2022/02/24 01:48:28;;;;;;;20.88;6.62;;;;;;;-0.90;89.13;99852.88;1765051;80;21107;-66
2022/02/24 01:50:55;;;;;;;21.82;6.17;;;;;;;-0.94;89.07;99852.47;1763739;80;21032;-66
2022/02/24 01:53:22;;;;;;;16.65;5.95;;;;;;;-0.97;89.07;99849.91;1760466;80;21059;-66
2022/02/24 01:55:49;;;;;;;21.37;6.37;;;;;;;-0.99;89.18;99846.47;1761778;80;20945;-66
2022/02/24 01:58:18;;;;;;;23.18;5.90;;;;;;;-1.01;89.18;99844.33;1767120;80;21414;-66
2022/02/24 02:00:45;;;;;;;16.73;6.17;;;;;;;-1.04;89.22;99845.61;1789377;79;20985;-66
2022/02/24 02:03:12;;;;;;;18.48;6.50;;;;;;;-1.06;89.22;99838.36;1788849;79;21028;-66
2022/02/24 02:05:38;;;;;;;17.00;6.03;;;;;;;-1.08;89.27;99833.66;1786778;79;21017;-66
2022/02/24 02:08:06;;;;;;;23.05;5.87;;;;;;;-1.11;89.28;99833.22;1787964;79;20978;-66
2022/02/24 02:10:33;;;;;;;18.45;5.65;;;;;;;-1.11;89.30;99831.09;1786992;79;21112;-66
2022/02/24 02:13:00;;;;;;;20.85;5.87;;;;;;;-1.13;89.34;99830.64;1789066;79;27057;-66
2022/02/24 02:15:27;;;;;;;16.70;5.30;;;;;;;-1.14;89.35;99822.53;1788651;79;21049;-66
2022/02/24 02:17:54;;;;;;;15.60;4.58;;;;;;;-1.15;89.42;99819.55;1783557;79;21093;-66
2022/02/24 02:20:20;;;;;;;23.53;5.53;;;;;;;-1.16;89.40;99824.66;1785221;79;20985;-66
2022/02/24 02:22:53;;;;;;;18.93;6.10;;;;;;;-1.17;89.48;99817.41;1782054;79;21125;-65
2022/02/24 02:25:20;;;;;;;22.25;5.55;;;;;;;-1.16;89.56;99814.41;1785854;79;20946;-66
2022/02/24 02:27:51;;;;;;;16.02;5.08;;;;;;;-1.16;89.63;99808.86;1780385;79;21032;-66
2022/02/24 02:30:20;;;;;;;14.83;5.17;;;;;;;-1.12;89.88;99809.74;1788128;79;22205;-66
2022/02/24 02:32:47;;;;;;;16.35;5.55;;;;;;;-1.06;89.86;99803.77;1786314;79;21638;-66
2022/02/24 02:35:16;;;;;;;14.43;5.33;;;;;;;-1.07;89.75;99805.88;1783895;79;21634;-66
2022/02/24 02:37:43;;;;;;;16.27;5.50;;;;;;;-1.05;89.83;99800.34;1785244;79;21021;-66
2022/02/24 02:40:13;;;;;;;19.20;5.22;;;;;;;-1.02;89.80;99808.03;1789912;79;20990;-66
2022/02/24 02:42:40;;;;;;;17.10;5.25;;;;;;;-1.01;89.85;99803.32;1791735;79;20974;-65
2022/02/24 02:45:09;;;;;;;17.98;5.78;;;;;;;-1.00;89.87;99802.48;1788755;79;21521;-66
2022/02/24 02:47:36;;;;;;;11.70;4.65;;;;;;;-1.00;89.90;99791.80;1790998;79;21089;-66
2022/02/24 02:50:04;;;;;;;16.82;5.55;;;;;;;-0.98;89.86;99791.78;1788801;79;20954;-65
2022/02/24 02:52:31;;;;;;;14.45;5.08;;;;;;;-0.98;89.83;99789.22;1787694;79;21009;-66
2022/02/24 02:55:09;;;;;;;16.42;5.30;;;;;;;-0.99;89.86;99795.21;1785674;79;20939;-66
2022/02/24 02:57:36;;;;;;;;;;;;;;;-0.99;89.82;99799.06;1791609;79;22028;-66
2022/02/24 03:00:10;;;;;;;14.95;4.92;;;;;;;-1.01;89.84;99792.67;1793952;78;22350;-66
2022/02/24 03:02:37;;;;;;;15.32;4.45;;;;;;;-1.01;89.87;99794.34;1786505;78;21069;-65
2022/02/24 03:05:05;;;;;;;15.32;4.95;;;;;;;-1.00;89.95;99796.08;1791111;79;20980;-65
2022/02/24 03:07:32;;;;;;;25.00;5.53;;;;;;;-0.99;90.00;99792.66;1794254;78;21020;-66
2022/02/24 03:09:58;;;;;;;18.87;5.58;;;;;;;-0.98;89.96;99786.66;1793652;78;21460;-65
2022/02/24 03:12:25;;;;;;;17.27;5.55;;;;;;;-0.99;89.88;99792.66;1789601;79;22284;-66
2022/02/24 03:14:52;;;;;;;17.80;5.50;;;;;;;-1.00;89.97;99793.52;1793749;78;21052;-66
2022/02/24 03:17:19;;;;;;;14.30;5.07;;;;;;;-0.97;90.10;99783.27;1789501;78;21470;-66
2022/02/24 03:19:45;;;;;;;17.87;4.87;;;;;;;-0.94;90.19;99784.11;1795002;78;20989;-66
2022/02/24 03:22:14;;;;;;;14.87;4.65;;;;;;;-0.89;90.28;99781.56;1790649;78;21510;-65
2022/02/24 03:24:40;;;;;;;18.65;4.83;;;;;;;-0.89;90.15;99784.12;1774545;80;21064;-66
2022/02/24 03:27:08;;;;;;;17.82;5.00;;;;;;;-0.87;90.12;99779.83;1783234;79;21156;-66
2022/02/24 03:29:34;;;;;;;19.17;5.28;;;;;;;-0.87;90.07;99779.83;1784937;78;28332;-66
2022/02/24 03:32:02;;;;;;;16.73;5.72;;;;;;;-0.87;90.13;99772.14;1783150;78;21003;-66
2022/02/24 03:34:31;;;;;;;18.12;5.60;;;;;;;-0.84;90.05;99773.84;1784207;79;20938;-66
2022/02/24 03:36:57;;;;;;;17.82;5.30;;;;;;;-0.83;90.08;99778.98;1786738;78;21923;-66
2022/02/24 03:39:24;;;;;;;20.00;5.83;;;;;;;-0.81;90.20;99778.57;1789277;78;20965;-66
2022/02/24 03:41:51;;;;;;;16.70;5.20;;;;;;;-0.78;90.25;99777.28;1793726;79;21495;-66
2022/02/24 03:44:18;;;;;;;15.15;4.70;;;;;;;-0.77;90.23;99776.42;1793856;78;21582;-65
2022/02/24 03:46:46;;;;;;;12.23;4.87;;;;;;;-0.75;90.27;99772.16;1802101;79;20977;-66
2022/02/24 03:49:13;;;;;;;11.40;4.67;;;;;;;-0.74;90.19;99758.47;1793800;78;21614;-66
2022/02/24 03:51:39;;;;;;;20.63;6.50;;;;;;;-0.73;90.22;99761.48;1797701;79;21000;-66
2022/02/24 03:54:06;;;;;;;16.70;5.05;;;;;;;-0.70;90.28;99753.78;1798446;79;21000;-66
2022/02/24 03:56:33;;;;;;;16.60;5.90;;;;;;;-0.70;90.29;99756.34;1797716;79;20950;-66
2022/02/24 03:58:59;;;;;;;18.15;5.40;;;;;;;-0.68;90.23;99757.17;1790927;79;21060;-66
2022/02/24 04:01:26;;;;;;;17.70;5.60;;;;;;;-0.65;90.40;99749.05;1768816;79;21109;-66
2022/02/24 04:03:53;;;;;;;16.93;5.57;;;;;;;-0.61;90.42;99749.50;1737178;81;21523;-66
2022/02/24 04:06:20;;;;;;;17.13;5.57;;;;;;;-0.72;90.29;99736.25;1741793;81;21384;-66
2022/02/24 04:08:46;;;;;;;15.25;5.33;;;;;;;-0.59;90.38;99751.61;1770417;80;21095;-66
2022/02/24 04:11:13;;;;;;;13.53;5.60;;;;;;;-0.57;90.44;99749.91;1773658;79;21010;-66
2022/02/24 04:13:39;;;;;;;13.98;4.90;;;;;;;-0.55;90.39;99750.77;1767869;80;21606;-66
2022/02/24 04:16:06;;;;;;;19.17;6.10;;;;;;;-0.54;90.34;99748.61;1775244;80;20970;-66
2022/02/24 04:18:33;;;;;;;12.73;4.78;;;;;;;-0.55;90.28;99748.20;1771263;80;20946;-66
2022/02/24 04:21:00;;;;;;;16.97;6.03;;;;;;;-0.55;90.25;99743.06;1778440;79;20988;-66
2022/02/24 04:23:26;;;;;;;12.50;4.93;;;;;;;-0.57;90.19;99739.64;1771966;79;21032;-66
2022/02/24 04:25:53;;;;;;;17.47;5.73;;;;;;;-0.58;90.20;99737.95;1772279;80;22084;-66
2022/02/24 04:28:20;;;;;;;15.88;6.45;;;;;;;-0.59;90.18;99731.09;1770010;80;21058;-66
2022/02/24 04:30:46;;;;;;;14.63;5.73;;;;;;;-0.59;90.17;99736.22;1775373;79;21843;-66
2022/02/24 04:33:13;;;;;;;20.50;6.77;;;;;;;-0.61;90.19;99727.27;1769895;80;21001;-66
2022/02/24 04:35:40;;;;;;;17.27;5.90;;;;;;;-0.62;90.22;99713.99;1767756;80;20993;-66
2022/02/24 04:38:07;;;;;;;16.17;6.10;;;;;;;-0.63;90.17;99719.14;1765278;79;22346;-65
2022/02/24 04:40:33;;;;;;;19.17;8.07;;;;;;;-0.61;90.26;99714.88;1773195;80;21027;-66
2022/02/24 04:43:00;;;;;;;17.73;7.00;;;;;;;-0.61;90.31;99716.16;1770107;79;20929;-66
2022/02/24 04:45:27;;;;;;;16.73;6.70;;;;;;;-0.60;90.31;99716.57;1770205;79;22380;-66
2022/02/24 04:47:54;;;;;;;17.23;5.92;;;;;;;-0.60;90.32;99703.75;1769473;79;21250;-66
2022/02/24 04:50:20;;;;;;;15.18;5.70;;;;;;;-0.61;90.26;99704.62;1762752;80;21449;-66
2022/02/24 04:52:47;;;;;;;17.47;5.57;;;;;;;-0.62;90.26;99697.77;1744125;81;21588;-66
2022/02/24 04:55:13;;;;;;;13.25;5.15;;;;;;;-0.61;90.31;99691.80;1762182;80;20932;-66
2022/02/24 04:57:40;;;;;;;19.82;5.22;;;;;;;-0.60;90.36;99693.48;1765470;79;20939;-65
2022/02/24 05:00:09;;;;;;;14.47;4.80;;;;;;;-0.60;90.29;99690.92;1774274;79;21025;-66
2022/02/24 05:02:36;;;;;;;16.82;5.15;;;;;;;-0.60;90.26;99693.48;1777887;79;21925;-65
2022/02/24 05:05:04;;;;;;;19.52;6.17;;;;;;;-0.60;90.40;99683.23;1774964;79;21047;-66
2022/02/24 05:07:31;;;;;;;18.60;5.60;;;;;;;-0.59;90.29;99682.36;1763074;79;21262;-65
2022/02/24 05:10:01;;;;;;;16.37;5.70;;;;;;;-0.62;90.29;99672.97;1765376;79;21537;-65
2022/02/24 05:12:28;;;;;;;15.75;5.80;;;;;;;-0.59;90.39;99677.23;1765607;79;21067;-65
2022/02/24 05:14:57;;;;;;;13.48;5.35;;;;;;;-0.57;90.45;99669.12;1764817;79;20945;-64
2022/02/24 05:17:23;;;;;;;12.30;4.87;;;;;;;-0.54;90.52;99669.10;1769414;79;22350;-65
2022/02/24 05:19:50;;;;;;;20.85;6.00;;;;;;;-0.53;90.47;99660.57;1769766;79;21035;-66
2022/02/24 05:22:17;;;;;;;14.27;5.80;;;;;;;-0.51;90.47;99663.96;1763451;79;21084;-66
2022/02/24 05:24:43;;;;;;;14.93;5.60;;;;;;;-0.51;90.43;99654.98;1766056;79;20982;-66
2022/02/24 05:27:10;;;;;;;13.37;4.70;;;;;;;-0.50;90.44;99659.28;1764136;79;21450;-66
2022/02/24 05:29:37;;;;;;;14.78;5.40;;;;;;;-0.49;90.45;99658.41;1760458;79;22366;-66
2022/02/24 05:32:05;;;;;;;21.95;6.30;;;;;;;-0.47;90.53;99656.70;1773831;79;20978;-66
2022/02/24 05:34:32;;;;;;;14.23;5.03;;;;;;;-0.44;90.52;99648.98;1775554;79;20977;-66
2022/02/24 05:36:58;;;;;;;10.85;4.40;;;;;;;-0.43;90.47;99647.27;1774725;79;21084;-66
2022/02/24 05:39:25;;;;;;;11.55;4.37;;;;;;;-0.42;90.51;99637.02;1778313;79;21945;-65
2022/02/24 05:41:52;;;;;;;18.50;5.50;;;;;;;-0.40;90.54;99642.97;1772319;79;20978;-66
2022/02/24 05:44:19;;;;;;;17.37;5.12;;;;;;;-0.36;90.52;99644.69;1766957;79;27241;-66
2022/02/24 05:46:46;;;;;;;16.17;5.40;;;;;;;-0.34;90.58;99640.38;1774138;79;21461;-66
2022/02/24 05:49:15;;;;;;;11.05;4.35;;;;;;;-0.28;90.63;99631.80;1774782;79;20906;-66
2022/02/24 05:51:42;;;;;;;17.42;5.00;;;;;;;-0.22;90.59;99644.63;1774505;80;21366;-66
2022/02/24 05:54:10;;;;;;;16.67;5.67;;;;;;;-0.19;90.51;99648.89;1770842;79;21036;-65
2022/02/24 05:56:38;;;;;;;11.63;4.72;;;;;;;-0.17;90.45;99647.99;1766558;79;20936;-66
2022/02/24 05:59:05;;;;;;;16.77;5.90;;;;;;;-0.14;90.47;99641.99;1774226;79;21000;-66
2022/02/24 06:01:31;;;;;;;12.85;5.45;;;;;;;-0.09;90.45;99641.11;1796111;79;21011;-66
2022/02/24 06:03:59;;;;;;;15.30;5.35;;;;;;;0.04;90.60;99641.91;1791304;78;21138;-66
2022/02/24 06:06:25;;;;;;;10.58;4.28;;;;;;;0.24;90.52;99640.93;1789086;78;20965;-65
2022/02/24 06:08:52;;;;;;;16.73;5.70;;;;;;;0.37;90.40;99639.55;1792430;78;20996;-65
2022/02/24 06:11:19;;;;;;;13.85;5.08;;;;;;;0.61;90.44;99639.77;1792515;79;20918;-66
2022/02/24 06:13:45;;;;;;;13.93;5.42;;;;;;;0.91;90.33;99635.25;1792884;79;21026;-66
2022/02/24 06:16:12;;;;;;;18.87;5.22;;;;;;;1.13;89.95;99630.75;1791602;78;21469;-66
2022/02/24 06:18:40;;;;;;;16.73;5.77;;;;;;;1.26;89.70;99633.61;1797488;78;21507;-66
2022/02/24 06:21:07;;;;;;;18.85;6.53;;;;;;;1.53;89.74;99628.56;1788374;79;21024;-65
2022/02/24 06:23:33;;;;;;;17.15;6.53;;;;;;;1.70;89.32;99619.79;1783277;79;21487;-64
2022/02/24 06:26:00;;;;;;;18.02;7.90;;;;;;;1.75;88.91;99624.01;1771181;79;20928;-64
2022/02/24 06:28:27;;;;;;;19.17;7.22;;;;;;;1.82;89.01;99624.80;1786484;79;21455;-64
2022/02/24 06:30:54;;;;;;;18.80;5.42;;;;;;;1.88;88.88;99622.14;1773353;79;20911;-65
2022/02/24 06:33:20;;;;;;;19.02;6.83;;;;;;;1.93;88.67;99620.36;1763595;80;20951;-66
2022/02/24 06:35:47;;;;;;;13.80;5.60;;;;;;;2.00;88.66;99615.52;1769097;80;21022;-64
2022/02/24 06:38:14;;;;;;;13.83;6.47;;;;;;;2.14;88.73;99611.90;1784206;79;21579;-64
2022/02/24 06:40:41;;;;;;;14.15;5.87;;;;;;;2.31;88.56;99608.62;1766977;80;21515;-67
2022/02/24 06:43:08;;;;;;;13.77;5.50;;;;;;;2.54;88.45;99608.25;1795698;78;21035;-66
2022/02/24 06:45:36;;;;;;;12.58;6.37;;;;;;;2.83;88.32;99606.48;1767115;79;20984;-66
2022/02/24 06:48:05;;;;;;;16.57;6.42;;;;;;;3.14;88.33;99604.64;1758124;79;21089;-68
2022/02/24 06:50:33;;;;;;;12.90;5.92;;;;;;;3.42;87.74;99605.37;1793470;79;21036;-66
2022/02/24 06:52:59;;;;;;;;;;;;;;;3.62;87.30;99595.50;1770717;79;21839;-67
2022/02/24 06:55:26;;;;;;;16.17;7.37;;;;;;;3.80;87.04;99593.80;1795947;79;20116;-66
2022/02/24 06:57:53;;;;;;;16.10;7.62;;;;;;;4.06;87.36;99588.95;1800479;79;21532;-66
2022/02/24 07:00:22;;;;;;;11.40;5.83;;;;;;;4.30;87.12;99586.25;1753896;79;20970;-66
2022/02/24 07:02:49;;;;;;;10.88;6.00;;;;;;;4.48;86.80;99584.48;1745545;81;21585;-66
2022/02/24 07:05:16;;;;;;;9.80;5.08;;;;;;;4.60;86.58;99585.50;1759871;80;21082;-66
2022/02/24 07:07:43;;;;;;;9.73;4.75;;;;;;;4.72;86.45;99581.75;1734423;81;23242;-66
2022/02/24 07:10:13;;;;;;;10.30;5.08;;;;;;;4.80;86.30;99568.63;1766252;79;21959;-66
2022/02/24 07:12:43;;;;;;;12.85;5.90;;;;;;;4.92;86.68;99577.34;1746451;81;21003;-66
2022/02/24 14:20:35;;;;;;;10.00;4.05;;;;;;;6.26;74.25;98844.05;1829921;77;24458;-63
2022/02/24 14:23:04;;;;;;;12.03;4.58;;;;;;;6.21;74.52;98856.83;1807381;78;20977;-64
2022/02/24 14:25:31;;;;;;;7.40;3.83;;;;;;;6.20;74.35;98844.33;1805877;77;21498;-64
2022/02/24 14:27:59;;;;;;;9.28;4.50;;;;;;;6.20;74.22;98840.91;1784172;78;20969;-63
2022/02/24 14:30:29;;;;;;;9.48;4.33;;;;;;;6.21;73.89;98833.04;1805665;78;21477;-64
2022/02/24 14:32:57;;;;;;;5.60;3.87;;;;;;;6.21;73.83;98832.20;1786882;78;21484;-62
2022/02/24 14:35:26;;;;;;;9.90;4.35;;;;;;;6.22;73.38;98833.91;1808085;77;20992;-64
2022/02/24 14:37:53;;;;;;;8.53;4.45;;;;;;;6.22;73.66;98832.16;1774285;78;21226;-62
2022/02/24 14:40:21;;;;;;;10.70;4.40;;;;;;;6.23;73.85;98832.98;1796853;77;21000;-63
2022/02/24 14:42:48;;;;;;;;;;;;;;;6.23;73.45;98830.39;1795531;78;20934;-63
2022/02/24 14:45:15;;;;;;;9.50;4.60;;;;;;;6.19;73.12;98810.25;1807628;78;20277;-63
2022/02/24 14:47:41;;;;;;;10.10;3.90;;;;;;;6.16;73.31;98818.17;1803552;78;21399;-63
2022/02/24 14:50:11;;;;;;;8.55;4.10;;;;;;;6.14;73.40;98817.39;1790011;78;21515;-62
2022/02/24 14:52:38;;;;;;;7.03;4.00;;;;;;;6.13;73.47;98800.59;1808612;78;21013;-63
2022/02/24 14:55:06;;;;;;;8.50;4.75;;;;;;;6.12;73.37;98798.92;1820318;78;21020;-63
2022/02/24 14:57:33;;;;;;;8.68;4.62;;;;;;;6.07;73.25;98795.69;1804038;77;21656;-64
2022/02/24 15:00:00;;;;;;;8.15;4.22;;;;;;;6.00;73.03;98778.28;1806085;77;21750;-63
2022/02/24 15:02:28;;;;;;;8.68;5.03;;;;;;;5.95;72.92;98786.23;1796235;78;21077;-64
2022/02/24 15:04:56;;;;;;;11.45;4.55;;;;;;;5.89;73.09;98781.75;1807577;77;20961;-64
2022/02/24 15:07:23;;;;;;;10.45;5.00;;;;;;;5.85;73.15;98786.20;1800686;78;20907;-64
2022/02/24 15:09:50;;;;;;;13.75;4.53;;;;;;;5.79;72.72;98785.17;1809272;78;21605;-63
2022/02/24 15:12:16;;;;;;;11.60;4.47;;;;;;;5.73;72.92;98778.97;1803464;77;20930;-64
2022/02/24 15:14:43;;;;;;;8.60;4.13;;;;;;;5.68;72.75;98770.09;1815075;78;22386;-64
2022/02/24 15:17:10;;;;;;;9.40;4.43;;;;;;;5.60;72.57;98773.03;1796375;78;20997;-63
2022/02/24 15:19:39;;;;;;;10.25;5.03;;;;;;;5.58;72.72;98765.77;1799483;78;20957;-63
2022/02/24 15:22:07;;;;;;;12.13;4.60;;;;;;;5.54;72.59;98766.78;1802675;77;20997;-65
2022/02/24 15:24:34;;;;;;;17.82;6.05;;;;;;;5.48;72.50;98770.93;1795186;78;21097;-63
2022/02/24 15:27:16;;;;;;;10.55;4.90;;;;;;;5.46;72.21;98757.66;1852493;76;23272;-64
2022/02/24 15:29:43;;;;;;;12.53;4.65;;;;;;;5.36;72.22;98756.75;1818002;78;21679;-62
2022/02/24 15:32:13;;;;;;;9.20;4.78;;;;;;;5.32;72.32;98754.34;1814924;78;21810;-63
2022/02/24 15:34:40;;;;;;;8.75;4.03;;;;;;;5.27;72.23;98752.42;1826109;78;20970;-64
2022/02/24 15:37:07;;;;;;;10.35;4.40;;;;;;;5.23;72.21;98758.61;1763640;80;20993;-63
2022/02/24 15:39:34;;;;;;;12.13;5.35;;;;;;;5.12;72.19;98744.36;1761881;80;21012;-63
2022/02/24 15:43:15;;;;;;;11.45;5.30;;;;;;;5.18;72.13;98760.54;1843035;75;24496;-61
2022/02/24 15:45:46;;;;;;;10.70;4.55;;;;;;;5.06;71.88;98760.13;1814544;76;21562;-61
2022/02/24 15:48:13;;;;;;;11.65;5.35;;;;;;;4.98;71.86;98750.54;1829622;76;21864;-62
2022/02/24 15:51:00;;;;;;;12.78;5.87;;;;;;;4.92;71.89;98749.50;1812361;78;22800;-63
2022/02/24 15:53:28;;;;;;;11.70;5.37;;;;;;;4.84;71.90;98743.78;1714357;82;20961;-64
2022/02/24 15:55:58;;;;;;;12.45;5.28;;;;;;;4.79;71.93;98749.58;1714069;82;21040;-62
2022/02/24 15:58:25;;;;;;;10.72;5.00;;;;;;;4.74;72.04;98742.02;1713622;82;21038;-63
2022/02/24 16:00:52;;;;;;;;;;;;;;;4.71;72.03;98736.52;1683759;83;21050;-62
2022/02/24 16:03:22;;;;;;;11.50;5.40;;;;;;;4.73;71.97;98733.02;1649119;85;20206;-63
2022/02/24 16:05:54;;;;;;;11.63;5.78;;;;;;;4.69;72.06;98727.13;1682808;83;20978;-64
2022/02/24 16:08:22;;;;;;;10.43;5.47;;;;;;;4.67;72.08;98721.17;1670561;85;21663;-62
2022/02/24 16:10:51;;;;;;;14.63;7.12;;;;;;;4.64;72.04;98722.13;1681032;83;26479;-62
2022/02/24 16:13:18;;;;;;;16.90;7.20;;;;;;;4.60;71.97;98715.41;1686766;84;21137;-63
2022/02/24 16:15:46;;;;;;;12.75;6.78;;;;;;;4.57;72.08;98710.36;1652071;85;24450;-63
2022/02/24 16:18:13;;;;;;;14.80;6.25;;;;;;;4.55;72.05;98703.56;1680796;83;21007;-63
2022/02/24 16:20:42;;;;;;;13.15;6.78;;;;;;;4.49;72.06;98701.60;1680802;83;21150;-63
2022/02/24 16:23:10;;;;;;;20.52;6.80;;;;;;;4.46;72.04;98703.02;1681774;83;21100;-63
2022/02/24 16:25:39;;;;;;;12.98;6.12;;;;;;;4.43;72.15;98698.42;1687893;83;21009;-63
2022/02/24 16:28:07;;;;;;;14.50;6.72;;;;;;;4.37;72.10;98699.93;1680372;83;21063;-63
2022/02/24 16:30:39;;;;;;;13.08;6.62;;;;;;;4.33;72.14;98694.50;1682608;83;20987;-63
2022/02/24 16:33:08;;;;;;;17.10;6.35;;;;;;;4.29;72.12;98696.83;1681314;84;21078;-63
2022/02/24 16:35:38;;;;;;;16.15;6.47;;;;;;;4.25;72.12;98696.91;1682756;85;21017;-63
2022/02/24 16:38:05;;;;;;;16.57;7.22;;;;;;;4.19;72.13;98689.40;1681966;83;21016;-64
2022/02/24 16:40:32;;;;;;;12.53;6.50;;;;;;;4.13;72.17;98676.72;1676829;83;20982;-64
2022/02/24 16:43:00;;;;;;;12.05;6.28;;;;;;;4.09;72.23;98675.16;1681634;83;21699;-63
2022/02/24 16:45:27;;;;;;;18.95;7.05;;;;;;;4.06;72.17;98672.67;1684223;83;20967;-63
2022/02/24 16:47:55;;;;;;;15.77;6.93;;;;;;;4.03;72.30;98671.07;1681680;83;21037;-63
2022/02/24 16:50:23;;;;;;;13.72;6.85;;;;;;;4.00;72.29;98665.16;1683807;83;21274;-63
2022/02/24 16:52:52;;;;;;;15.30;6.83;;;;;;;3.97;72.31;98667.86;1681358;83;21069;-63
2022/02/24 16:55:20;;;;;;;14.13;7.40;;;;;;;3.95;72.31;98661.89;1676969;83;20983;-63
2022/02/24 16:57:47;;;;;;;;;;;;;;;3.97;72.46;98662.69;1683221;83;21065;-64
2022/02/24 17:00:18;;;;;;;14.90;6.20;;;;;;;3.99;72.41;98666.06;1681260;83;20479;-66
2022/02/24 17:02:50;;;;;;;12.05;6.15;;;;;;;3.97;72.38;98653.66;1654463;83;21117;-63
2022/02/24 17:05:18;;;;;;;21.12;7.05;;;;;;;3.96;72.48;98650.69;1677054;83;21909;-65
2022/02/24 17:07:45;;;;;;;12.70;6.03;;;;;;;3.93;72.44;98646.47;1667709;83;21060;-64
2022/02/24 17:10:12;;;;;;;14.40;6.33;;;;;;;3.91;72.50;98638.39;1691398;83;21017;-64
2022/02/24 17:12:39;;;;;;;12.58;5.75;;;;;;;3.91;72.55;98634.52;1683889;83;21540;-62
2022/02/24 17:15:10;;;;;;;15.13;6.22;;;;;;;3.91;72.51;98633.23;1674387;85;22595;-62
2022/02/24 17:17:35;;;;;;;14.10;7.00;;;;;;;3.91;72.58;98626.77;1679168;83;21029;-62
2022/02/24 17:20:02;;;;;;;20.80;6.87;;;;;;;3.93;72.66;98632.73;1675088;84;21644;-64
2022/02/24 17:22:29;;;;;;;11.15;6.25;;;;;;;3.92;72.62;98628.44;1683223;83;21790;-63
2022/02/24 17:24:56;;;;;;;12.90;6.92;;;;;;;3.89;72.61;98615.64;1661433;85;26554;-63
2022/02/24 17:27:23;;;;;;;14.35;6.50;;;;;;;3.88;72.72;98619.14;1680633;83;21145;-63
2022/02/24 17:29:51;;;;;;;16.62;7.22;;;;;;;3.87;72.75;98614.89;1683001;83;21125;-64
2022/02/24 17:32:21;;;;;;;16.37;6.92;;;;;;;3.86;72.79;98610.60;1683095;83;21025;-63
2022/02/24 17:34:50;;;;;;;12.05;6.40;;;;;;;3.83;72.76;98597.81;1683721;83;21011;-65
2022/02/24 17:37:17;;;;;;;14.00;6.67;;;;;;;3.80;72.80;98593.14;1685114;83;21033;-64
2022/02/24 17:39:43;;;;;;;12.75;6.90;;;;;;;3.79;72.87;98585.02;1684888;83;21888;-65
2022/02/24 17:42:10;;;;;;;15.97;7.13;;;;;;;3.79;72.91;98585.02;1684025;83;21088;-65
2022/02/24 17:44:42;;;;;;;14.53;6.65;;;;;;;3.78;72.96;98591.09;1684592;83;21148;-65
2022/02/24 17:47:10;;;;;;;16.95;8.10;;;;;;;3.77;72.93;98591.97;1685339;83;21032;-65
2022/02/24 17:49:39;;;;;;;13.60;6.62;;;;;;;3.76;73.00;98587.72;1671243;85;21157;-66
2022/02/24 17:52:07;;;;;;;12.73;6.72;;;;;;;3.78;73.01;98585.06;1654708;85;21519;-66
2022/02/24 17:54:34;;;;;;;14.63;6.95;;;;;;;3.78;73.07;98583.34;1630758;85;21102;-66
2022/02/24 17:57:01;;;;;;;16.97;7.17;;;;;;;3.81;73.13;98568.19;1658232;85;21121;-63
2022/02/24 17:59:27;;;;;;;16.30;7.20;;;;;;;3.88;73.20;98562.33;1684688;83;21076;-65
2022/02/24 18:01:54;;;;;;;14.95;7.12;;;;;;;3.92;73.16;98569.05;1691793;83;22435;-64
2022/02/24 18:04:21;;;;;;;17.65;7.30;;;;;;;3.96;73.16;98566.30;1684911;83;21394;-65
2022/02/24 18:06:47;;;;;;;11.43;6.58;;;;;;;4.01;73.06;98563.55;1685560;83;21496;-65
2022/02/24 18:09:14;;;;;;;13.17;6.10;;;;;;;4.04;73.10;98550.51;1684220;83;20958;-65
2022/02/24 18:11:41;;;;;;;12.60;5.97;;;;;;;4.04;73.08;98542.76;1681353;83;21078;-65
2022/02/24 18:14:07;;;;;;;17.57;5.93;;;;;;;4.04;73.02;98535.01;1688919;83;21049;-65
2022/02/24 18:16:34;;;;;;;15.10;6.30;;;;;;;4.03;73.01;98528.14;1682927;83;21271;-66
2022/02/24 18:19:02;;;;;;;14.00;6.05;;;;;;;3.98;72.99;98519.76;1668639;83;21058;-65
2022/02/24 18:21:29;;;;;;;10.68;5.55;;;;;;;3.94;73.05;98516.89;1683187;83;24404;-65
2022/02/24 18:23:56;;;;;;;16.62;6.70;;;;;;;3.92;73.10;98518.69;1689322;83;21568;-65
2022/02/24 18:26:23;;;;;;;14.20;6.90;;;;;;;3.92;73.23;98527.72;1694700;82;21153;-65
2022/02/24 18:28:50;;;;;;;12.75;6.50;;;;;;;3.96;73.30;98544.80;1689280;83;21327;-65
2022/02/24 18:31:18;;;;;;;16.07;7.53;;;;;;;4.01;73.34;98528.67;1678615;83;20923;-65
2022/02/24 18:33:47;;;;;;;13.32;6.37;;;;;;;4.06;73.39;98522.84;1685922;83;21496;-65
2022/02/24 18:36:14;;;;;;;17.57;7.70;;;;;;;4.10;73.40;98520.55;1684422;83;21688;-65
2022/02/24 18:38:41;;;;;;;13.05;6.53;;;;;;;4.14;73.39;98523.39;1700364;83;20970;-65